Time;durP1;ratioP1;P1;durP2;ratioP2;P2;SDS_P1;SDS_P2;PMS_P1;PMS_P2;Temp;Humidity;BMP_temperature;BMP_pressure;BME280_temperature;BME280_humidity;BME280_pressure;Samples;Min_cycle;Max_cycle;Signal;HPM_P1;HPM_P2
2021/06/05 00:01:51;;;;;;;17.27;7.47;;;;;;;14.74;44.49;99520.92;126025;1092;102929;-72
2021/06/05 00:04:22;;;;;;;17.68;7.18;;;;;;;14.72;44.28;99520.20;125749;1093;103058;-71
2021/06/05 00:06:51;;;;;;;19.03;7.37;;;;;;;14.71;44.63;99516.66;126000;1092;103044;-72
2021/06/05 00:09:22;;;;;;;20.37;7.87;;;;;;;14.65;44.74;99514.48;126004;1093;102935;-72
2021/06/05 00:11:51;;;;;;;17.90;7.53;;;;;;;14.59;44.92;99509.63;125999;1093;103011;-72
2021/06/05 00:14:19;;;;;;;15.80;6.47;;;;;;;14.56;45.14;99515.23;126008;1092;102927;-72
2021/06/05 00:16:50;;;;;;;18.83;7.67;;;;;;;14.53;44.90;99504.78;126008;1093;103038;-74
2021/06/05 00:19:20;;;;;;;19.47;7.53;;;;;;;14.51;45.17;99509.41;125734;1093;102911;-74
2021/06/05 00:21:49;;;;;;;21.77;7.27;;;;;;;14.50;45.29;99513.89;126033;1093;103010;-75
2021/06/05 00:24:18;;;;;;;18.37;6.93;;;;;;;14.53;45.23;99507.45;125782;1093;103095;-74
2021/06/05 00:26:48;;;;;;;15.97;6.80;;;;;;;14.56;45.45;99504.53;126084;1093;102885;-74
2021/06/05 00:29:18;;;;;;;16.17;6.80;;;;;;;14.59;45.52;99504.28;126084;1092;103001;-76
2021/06/05 00:31:47;;;;;;;17.93;7.07;;;;;;;14.61;45.62;99501.46;126061;1093;103006;-73
2021/06/05 00:34:15;;;;;;;20.30;7.67;;;;;;;14.63;46.15;99499.50;126013;1093;103006;-74
2021/06/05 00:36:44;;;;;;;17.95;7.10;;;;;;;14.63;45.95;99496.83;125697;1093;102907;-73
2021/06/05 00:39:12;;;;;;;17.50;6.70;;;;;;;14.65;45.81;99490.39;125883;1093;102907;-73
2021/06/05 00:41:41;;;;;;;17.80;7.00;;;;;;;14.67;45.95;99491.08;126009;1093;102904;-72
2021/06/05 00:44:13;;;;;;;16.87;6.67;;;;;;;14.68;46.01;99491.95;125728;1093;103044;-72
2021/06/05 00:46:42;;;;;;;17.90;6.70;;;;;;;14.69;45.96;99486.48;125990;1093;103011;-73
2021/06/05 00:49:12;;;;;;;16.87;6.97;;;;;;;14.69;46.64;99481.13;125975;1093;102935;-74
2021/06/05 00:51:50;;;;;;;15.87;7.00;;;;;;;14.67;46.61;99482.22;126046;1093;102911;-73
2021/06/05 00:54:21;;;;;;;18.67;6.70;;;;;;;14.64;46.80;99483.34;125740;1093;103082;-73
2021/06/05 00:57:01;;;;;;;17.23;6.73;;;;;;;14.60;47.00;99479.21;125750;1092;103042;-73
2021/06/05 00:59:29;;;;;;;19.03;6.80;;;;;;;14.55;46.80;99476.06;125685;1093;102967;-74
2021/06/05 01:01:58;;;;;;;15.47;6.53;;;;;;;14.53;47.15;99469.98;125977;1093;103148;-73
2021/06/05 01:04:27;;;;;;;18.83;7.00;;;;;;;14.52;46.94;99481.66;125941;1092;102940;-74
2021/06/05 01:07:25;;;;;;;16.00;6.63;;;;;;;14.51;47.42;99478.13;126486;1093;103393;-75
2021/06/05 01:10:00;;;;;;;18.20;7.30;;;;;;;14.50;47.19;99481.77;125881;1093;103029;-73
2021/06/05 01:12:36;;;;;;;16.33;6.63;;;;;;;14.48;47.64;99473.02;125949;1092;102997;-74
2021/06/05 01:15:15;;;;;;;18.67;7.47;;;;;;;14.46;47.61;99471.46;125974;1093;102904;-73
2021/06/05 01:17:48;;;;;;;18.27;7.37;;;;;;;14.44;47.62;99468.92;125996;1093;102903;-74
2021/06/05 01:20:45;;;;;;;18.80;6.75;;;;;;;14.44;47.85;99474.28;125682;1091;103039;-73
2021/06/05 01:23:19;;;;;;;14.83;6.57;;;;;;;14.44;48.01;99466.25;125924;1093;102999;-73
2021/06/05 01:25:59;;;;;;;18.93;6.53;;;;;;;14.42;48.18;99457.50;125961;1093;102927;-73
2021/06/05 01:28:33;;;;;;;16.80;6.55;;;;;;;14.42;47.89;99460.17;125964;1092;103011;-73
2021/06/05 01:31:06;;;;;;;14.35;5.58;;;;;;;14.43;48.23;99453.84;125947;1092;102985;-72
2021/06/05 01:33:36;;;;;;;;;;;;;;;14.41;48.11;99453.13;125992;1092;103000;-73
2021/06/05 01:36:08;;;;;;;14.97;6.07;;;;;;;14.39;48.21;99447.05;125931;1093;103003;-74
2021/06/05 01:38:42;;;;;;;19.23;7.63;;;;;;;14.37;48.46;99446.32;126082;1093;103419;-74
2021/06/05 01:41:13;;;;;;;16.67;6.60;;;;;;;14.31;48.48;99450.33;125788;1093;102996;-73
2021/06/05 01:43:44;;;;;;;15.63;6.70;;;;;;;14.31;48.79;99452.17;126090;1093;102935;-74
2021/06/05 01:46:15;;;;;;;16.27;6.80;;;;;;;14.31;48.78;99444.98;125964;1093;103075;-75
2021/06/05 01:48:43;;;;;;;13.40;6.03;;;;;;;14.32;49.21;99454.70;125970;1093;103370;-75
2021/06/05 01:51:18;;;;;;;14.03;6.33;;;;;;;14.30;48.82;99448.63;125992;1093;103004;-75
2021/06/05 01:53:57;;;;;;;18.43;6.53;;;;;;;14.26;48.88;99450.72;126010;1093;102940;-74
2021/06/05 01:56:35;;;;;;;16.40;7.17;;;;;;;14.22;48.96;99451.95;126003;1093;103421;-73
2021/06/05 01:59:06;;;;;;;13.93;6.10;;;;;;;14.21;49.07;99452.09;125754;1093;102996;-73
2021/06/05 02:01:34;;;;;;;15.80;6.93;;;;;;;14.20;49.00;99445.03;125982;1093;102971;-73
2021/06/05 02:04:03;;;;;;;14.77;6.30;;;;;;;14.17;49.42;99442.61;125742;1093;102984;-73
2021/06/05 02:06:32;;;;;;;17.27;7.60;;;;;;;14.13;49.43;99439.31;126016;1091;103544;-75
2021/06/05 02:09:03;;;;;;;15.30;6.50;;;;;;;14.10;49.49;99439.56;126013;1093;102929;-74
2021/06/05 02:11:37;;;;;;;17.17;7.00;;;;;;;14.06;49.49;99432.80;125981;1093;102902;-73
2021/06/05 02:14:12;;;;;;;16.10;6.47;;;;;;;14.01;50.39;99430.48;125977;1093;102926;-74
2021/06/05 02:16:46;;;;;;;16.00;6.30;;;;;;;13.92;50.94;99425.87;125734;1093;103867;-74
2021/06/05 02:19:32;;;;;;;16.80;6.55;;;;;;;13.84;51.18;99426.50;125994;1093;103404;-73
2021/06/05 02:22:05;;;;;;;17.23;7.53;;;;;;;13.75;50.77;99419.21;126047;1093;103422;-74
2021/06/05 02:24:39;;;;;;;16.53;7.23;;;;;;;13.68;51.33;99411.68;126019;1093;103001;-74
2021/06/05 02:27:07;;;;;;;16.43;6.43;;;;;;;13.66;51.75;99415.47;125977;1093;102960;-75
2021/06/05 02:29:39;;;;;;;17.30;6.53;;;;;;;13.61;51.87;99409.63;126047;1093;102938;-74
2021/06/05 02:32:12;;;;;;;14.70;6.40;;;;;;;13.58;51.59;99404.53;126000;1093;103016;-74
2021/06/05 02:34:41;;;;;;;17.53;7.23;;;;;;;13.55;51.71;99409.14;126036;1093;102941;-73
2021/06/05 02:37:15;;;;;;;15.13;6.40;;;;;;;13.54;51.59;99393.25;126005;1093;103035;-74
2021/06/05 02:39:44;;;;;;;16.90;6.90;;;;;;;13.53;52.16;99392.38;125970;1093;102984;-73
2021/06/05 02:42:19;;;;;;;15.30;6.70;;;;;;;13.51;51.87;99378.30;125984;1093;102904;-73
2021/06/05 02:44:51;;;;;;;16.70;6.93;;;;;;;13.51;51.79;99386.31;125766;1093;103403;-73
2021/06/05 02:47:22;;;;;;;14.77;6.07;;;;;;;13.51;51.91;99386.31;126023;1093;102903;-73
2021/06/05 02:49:51;;;;;;;17.60;6.13;;;;;;;13.53;52.28;99386.20;125993;1093;103634;-73
2021/06/05 02:52:30;;;;;;;15.40;6.75;;;;;;;13.54;51.71;99386.06;125983;1093;102985;-73
2021/06/05 02:55:12;;;;;;;13.70;6.47;;;;;;;13.60;51.84;99392.77;126049;1092;102991;-72
2021/06/05 02:57:41;;;;;;;15.63;6.60;;;;;;;13.65;51.57;99389.70;126071;1093;102960;-73
2021/06/05 03:00:30;;;;;;;16.13;6.40;;;;;;;13.70;51.85;99395.53;126056;1093;102991;-73
2021/06/05 03:03:00;;;;;;;16.80;6.53;;;;;;;13.77;51.90;99393.20;125991;1093;102982;-73
2021/06/05 03:05:31;;;;;;;17.00;6.20;;;;;;;13.83;51.62;99390.04;125979;1091;102903;-73
2021/06/05 03:08:02;;;;;;;14.87;6.33;;;;;;;13.89;51.67;99386.00;126022;1093;102908;-74
2021/06/05 03:10:31;;;;;;;16.33;6.47;;;;;;;13.93;51.64;99390.13;125993;1092;102956;-75
2021/06/05 03:13:01;;;;;;;14.83;6.27;;;;;;;13.98;51.90;99377.23;126050;1093;103023;-73
2021/06/05 03:15:30;;;;;;;17.30;7.07;;;;;;;14.01;51.69;99385.01;126008;1093;102985;-72
2021/06/05 03:18:00;;;;;;;17.47;6.87;;;;;;;14.04;51.62;99382.09;125986;1092;103489;-74
2021/06/05 03:20:34;;;;;;;16.77;6.20;;;;;;;14.05;51.74;99385.63;126016;1094;102905;-74
2021/06/05 03:23:05;;;;;;;16.27;6.23;;;;;;;14.05;51.96;99383.78;126025;1093;102906;-75
2021/06/05 03:25:34;;;;;;;16.43;6.53;;;;;;;14.02;51.66;99384.03;125750;1093;102971;-76
2021/06/05 03:28:04;;;;;;;14.80;6.77;;;;;;;13.99;51.72;99387.83;125992;1091;102988;-76
2021/06/05 03:30:35;;;;;;;18.73;6.80;;;;;;;13.99;51.69;99384.28;125983;1093;102984;-74
2021/06/05 03:33:04;;;;;;;16.43;6.10;;;;;;;13.99;51.95;99387.83;125997;1093;102881;-74
2021/06/05 03:35:34;;;;;;;14.33;6.20;;;;;;;13.99;51.75;99381.61;125969;1093;102937;-75
2021/06/05 03:38:02;;;;;;;18.17;6.93;;;;;;;13.97;52.12;99378.21;125996;1093;102932;-77
2021/06/05 03:40:32;;;;;;;19.57;7.27;;;;;;;13.98;51.86;99383.45;126017;1093;103031;-74
2021/06/05 03:43:02;;;;;;;15.60;6.10;;;;;;;13.96;51.88;99382.73;125965;1093;103081;-75
2021/06/05 03:45:31;;;;;;;14.83;6.83;;;;;;;14.01;52.18;99386.85;126020;1093;102997;-77
2021/06/05 03:48:00;;;;;;;16.73;6.57;;;;;;;14.03;52.07;99379.55;125990;1093;102994;-75
2021/06/05 03:50:36;;;;;;;14.93;6.43;;;;;;;14.08;52.19;99385.34;125999;1092;103018;-74
2021/06/05 03:53:04;;;;;;;15.07;6.23;;;;;;;14.12;52.16;99387.66;125992;1093;102933;-76
2021/06/05 03:55:33;;;;;;;14.73;5.93;;;;;;;14.17;52.26;99384.59;125986;1093;102971;-72
2021/06/05 03:58:02;;;;;;;15.17;5.83;;;;;;;14.22;52.23;99382.39;125983;1093;102907;-73
2021/06/05 04:00:35;;;;;;;13.57;5.73;;;;;;;14.26;52.28;99380.33;126032;1091;103025;-73
2021/06/05 04:03:05;;;;;;;15.68;6.40;;;;;;;14.32;52.40;99389.66;126123;1092;102959;-75
2021/06/05 04:05:35;;;;;;;13.50;5.80;;;;;;;14.36;52.22;99388.42;126198;1093;103406;-73
2021/06/05 04:08:06;;;;;;;15.40;5.97;;;;;;;14.41;52.50;99394.25;126127;1092;102989;-72
2021/06/05 04:10:35;;;;;;;16.85;6.90;;;;;;;14.45;52.58;99401.05;126076;1093;102918;-74
2021/06/05 04:13:05;;;;;;;17.30;6.20;;;;;;;14.48;52.34;99405.27;126017;1092;103354;-74
2021/06/05 04:15:34;;;;;;;14.03;5.97;;;;;;;14.53;52.45;99417.28;126053;1093;103028;-73
2021/06/05 04:18:14;;;;;;;16.17;6.27;;;;;;;14.55;52.67;99419.84;125993;1093;103004;-72
2021/06/05 04:20:44;;;;;;;12.60;5.47;;;;;;;14.55;52.51;99428.71;125967;1091;103087;-74
2021/06/05 04:23:14;;;;;;;15.90;6.73;;;;;;;14.56;52.46;99427.73;126014;1093;102938;-72
2021/06/05 04:25:43;;;;;;;16.63;6.87;;;;;;;14.57;52.71;99434.78;126026;1093;103010;-75
2021/06/05 04:28:14;;;;;;;16.43;6.77;;;;;;;14.58;52.67;99431.13;126030;1093;103354;-74
2021/06/05 04:30:44;;;;;;;19.00;6.90;;;;;;;14.59;52.78;99429.33;126096;1092;103332;-74
2021/06/05 04:33:16;;;;;;;18.77;7.57;;;;;;;14.57;52.80;99434.78;126122;1093;102997;-73
2021/06/05 04:35:45;;;;;;;20.17;7.87;;;;;;;14.56;52.72;99424.22;126118;1093;102916;-75
2021/06/05 04:38:13;;;;;;;18.20;8.60;;;;;;;14.53;52.80;99429.83;126137;1093;103143;-73
2021/06/05 04:40:43;;;;;;;19.47;8.03;;;;;;;14.52;52.92;99420.94;126135;1093;102902;-73
2021/06/05 04:43:14;;;;;;;18.10;7.67;;;;;;;14.46;52.99;99426.83;126118;1093;103355;-74
2021/06/05 04:45:44;;;;;;;17.93;7.60;;;;;;;14.45;53.16;99433.16;126038;1093;102931;-74
2021/06/05 04:48:14;;;;;;;18.47;7.33;;;;;;;14.46;53.01;99444.70;126086;1092;102932;-76
2021/06/05 04:50:45;;;;;;;18.87;7.87;;;;;;;14.48;53.37;99454.28;126073;1093;102909;-73
2021/06/05 04:53:13;;;;;;;17.60;7.50;;;;;;;14.50;52.99;99454.17;126111;1093;103017;-74
2021/06/05 04:55:43;;;;;;;18.40;7.63;;;;;;;14.47;53.38;99454.43;126102;1092;103042;-74
2021/06/05 04:58:12;;;;;;;18.37;6.70;;;;;;;14.46;53.37;99455.41;126113;1093;103002;-73
2021/06/05 05:00:44;;;;;;;19.90;7.80;;;;;;;14.41;53.16;99458.47;126145;1093;103058;-71
2021/06/05 05:03:17;;;;;;;20.37;7.90;;;;;;;14.34;53.24;99462.63;126117;1093;102916;-75
2021/06/05 05:05:45;;;;;;;18.73;7.67;;;;;;;14.29;53.54;99452.28;126090;1093;103001;-73
2021/06/05 05:08:17;;;;;;;19.43;8.23;;;;;;;14.23;53.50;99456.33;126071;1093;103084;-75
2021/06/05 05:10:51;;;;;;;20.73;9.10;;;;;;;14.21;53.52;99447.57;125822;1093;103054;-76
2021/06/05 05:13:24;;;;;;;19.07;8.53;;;;;;;14.21;53.56;99442.22;125826;1093;103358;-75
2021/06/05 05:15:54;;;;;;;20.58;8.33;;;;;;;14.20;54.11;99445.03;126089;1093;103048;-76
2021/06/05 05:18:24;;;;;;;21.13;8.73;;;;;;;14.17;54.00;99440.77;126068;1092;103001;-76
2021/06/05 05:20:53;;;;;;;18.70;8.30;;;;;;;14.17;53.72;99438.09;126113;1093;102939;-75
2021/06/05 05:23:28;;;;;;;19.40;8.43;;;;;;;14.11;53.77;99423.41;126014;1093;103009;-75
2021/06/05 05:25:59;;;;;;;18.10;8.27;;;;;;;14.08;53.83;99420.98;126080;1093;103400;-75
2021/06/05 05:28:28;;;;;;;20.20;8.40;;;;;;;14.08;53.94;99417.44;125790;1093;102901;-75
2021/06/05 05:30:59;;;;;;;18.03;7.83;;;;;;;14.06;54.26;99419.42;126083;1092;103014;-74
2021/06/05 05:33:28;;;;;;;20.53;7.80;;;;;;;14.08;54.31;99422.79;126136;1093;103074;-76
2021/06/05 05:35:58;;;;;;;18.03;7.70;;;;;;;14.10;54.33;99421.70;126090;1093;102974;-76
2021/06/05 05:38:26;;;;;;;15.70;7.53;;;;;;;14.13;54.65;99425.94;126122;1093;103077;-76
2021/06/05 05:40:55;;;;;;;17.67;7.50;;;;;;;14.16;54.56;99422.19;126104;1093;102928;-78
2021/06/05 05:43:24;;;;;;;17.95;7.20;;;;;;;14.18;54.63;99422.91;126126;1093;102975;-76
2021/06/05 05:45:52;;;;;;;17.57;8.53;;;;;;;14.21;54.58;99428.01;126108;1092;103114;-75
2021/06/05 05:48:21;;;;;;;21.27;8.53;;;;;;;14.23;54.70;99421.55;126076;1092;102979;-74
2021/06/05 05:50:50;;;;;;;22.27;9.50;;;;;;;14.27;54.93;99419.45;126100;1093;102927;-74
2021/06/05 05:53:19;;;;;;;21.77;9.13;;;;;;;14.28;54.90;99422.02;126079;1093;102922;-74
2021/06/05 05:55:47;;;;;;;19.87;8.77;;;;;;;14.31;55.11;99414.72;126058;1093;102929;-78
2021/06/05 05:58:19;;;;;;;21.47;8.93;;;;;;;14.35;54.95;99410.80;126000;1091;102984;-78
2021/06/05 06:00:49;;;;;;;20.90;9.10;;;;;;;14.38;55.19;99414.06;125967;1093;103001;-76
2021/06/05 06:03:20;;;;;;;21.43;9.00;;;;;;;14.41;55.27;99412.98;126049;1091;103000;-75
2021/06/05 06:05:49;;;;;;;20.00;8.67;;;;;;;14.42;55.47;99398.62;126002;1093;102910;-74
2021/06/05 06:08:20;;;;;;;18.00;7.97;;;;;;;14.46;55.29;99399.20;126052;1093;102955;-76
2021/06/05 06:10:49;;;;;;;17.13;7.93;;;;;;;14.48;55.33;99406.11;126032;1093;103034;-74
2021/06/05 06:13:20;;;;;;;20.57;8.87;;;;;;;14.50;55.40;99406.00;125980;1093;103023;-75
2021/06/05 06:15:48;;;;;;;17.90;7.70;;;;;;;14.51;55.68;99400.50;125986;1093;103007;-75
2021/06/05 06:18:17;;;;;;;19.57;8.43;;;;;;;14.50;55.68;99404.16;126000;1093;103076;-75
2021/06/05 06:20:49;;;;;;;18.20;8.13;;;;;;;14.52;55.76;99407.55;126023;1093;103002;-75
2021/06/05 06:23:28;;;;;;;19.43;8.03;;;;;;;14.52;55.81;99410.23;126035;1093;102878;-75
2021/06/05 06:26:00;;;;;;;17.07;7.50;;;;;;;14.55;55.74;99409.98;125980;1093;103078;-75
2021/06/05 06:28:33;;;;;;;19.38;7.50;;;;;;;14.62;55.98;99407.65;125767;1093;103031;-75
2021/06/05 06:31:02;;;;;;;17.47;7.83;;;;;;;14.69;55.85;99418.71;126007;1093;102907;-75
2021/06/05 06:33:31;;;;;;;17.85;7.45;;;;;;;14.76;56.00;99400.29;126058;1093;103405;-76
2021/06/05 06:36:00;;;;;;;18.23;7.60;;;;;;;14.82;56.20;99403.31;126015;1093;103011;-73
2021/06/05 06:38:33;;;;;;;16.97;7.87;;;;;;;14.87;56.15;99406.45;126007;1093;103188;-74
2021/06/05 06:41:03;;;;;;;16.63;8.03;;;;;;;14.86;56.08;99402.08;125987;1091;102913;-74
2021/06/05 06:43:32;;;;;;;19.27;8.50;;;;;;;14.78;56.48;99396.52;126019;1092;103023;-76
2021/06/05 06:46:06;;;;;;;22.27;8.77;;;;;;;14.67;56.56;99391.19;125761;1092;102996;-74
2021/06/05 06:48:36;;;;;;;18.63;8.30;;;;;;;14.59;56.70;99391.84;125739;1093;103009;-73
2021/06/05 06:51:05;;;;;;;19.77;9.10;;;;;;;14.52;57.06;99406.72;126010;1093;103079;-74
2021/06/05 06:53:35;;;;;;;21.83;9.40;;;;;;;14.42;56.98;99406.65;126039;1093;102910;-76
2021/06/05 06:56:07;;;;;;;19.13;8.67;;;;;;;14.37;57.10;99396.31;125988;1093;102985;-74
2021/06/05 06:58:35;;;;;;;18.50;8.93;;;;;;;14.39;57.41;99398.88;126045;1092;102932;-74
2021/06/05 07:01:06;;;;;;;19.57;8.73;;;;;;;14.41;57.29;99404.95;126021;1093;103003;-75
2021/06/05 07:03:35;;;;;;;20.03;9.00;;;;;;;14.48;57.50;99395.41;125999;1092;102957;-72
2021/06/05 07:06:04;;;;;;;20.77;8.60;;;;;;;14.57;57.55;99391.95;126033;1093;102903;-73
2021/06/05 07:08:36;;;;;;;19.60;8.40;;;;;;;14.65;57.85;99393.14;125991;1092;103053;-73
2021/06/05 07:11:09;;;;;;;16.60;7.87;;;;;;;14.71;57.88;99387.30;125982;1091;102982;-73
2021/06/05 07:13:38;;;;;;;16.20;7.37;;;;;;;14.78;58.03;99388.48;125920;1093;102981;-74
2021/06/05 07:16:07;;;;;;;15.43;7.00;;;;;;;14.86;57.88;99388.69;125914;1091;103085;-75
2021/06/05 07:18:37;;;;;;;19.20;8.20;;;;;;;14.96;58.29;99390.55;125922;1092;102993;-71
2021/06/05 07:21:08;;;;;;;18.03;7.93;;;;;;;15.08;58.17;99405.58;126008;1091;102929;-74
2021/06/05 07:23:39;;;;;;;16.70;7.93;;;;;;;15.22;58.14;99409.73;125983;1093;102998;-73
2021/06/05 07:26:12;;;;;;;20.37;9.13;;;;;;;15.36;58.36;99410.38;125976;1093;103077;-74
2021/06/05 07:28:48;;;;;;;20.13;9.38;;;;;;;15.50;58.33;99403.80;125948;1093;103039;-72
2021/06/05 07:31:42;;;;;;;17.97;8.67;;;;;;;15.63;58.31;99418.66;126009;1091;102907;-72
2021/06/05 07:34:12;;;;;;;15.90;7.47;;;;;;;15.78;58.34;99410.24;125998;1093;103377;-72
2021/06/05 07:36:44;;;;;;;17.23;7.80;;;;;;;15.95;58.16;99411.45;125777;1093;102993;-73
2021/06/05 07:39:16;;;;;;;17.93;7.63;;;;;;;16.28;58.24;99417.42;126010;1093;103000;-74
2021/06/05 07:41:44;;;;;;;16.27;7.63;;;;;;;16.44;58.46;99416.02;125982;1092;103052;-73
2021/06/05 07:44:17;;;;;;;19.63;8.27;;;;;;;16.52;58.55;99417.00;126024;1093;102919;-75
2021/06/05 07:46:53;;;;;;;21.17;9.83;;;;;;;16.67;58.59;99416.58;125990;1092;103043;-74
2021/06/05 07:49:24;;;;;;;23.20;11.77;;;;;;;16.76;58.39;99410.33;126109;1093;103151;-75
2021/06/05 07:51:53;;;;;;;26.97;14.77;;;;;;;16.84;58.24;99414.14;126023;1092;102901;-74
2021/06/05 07:54:22;;;;;;;24.30;10.90;;;;;;;16.85;58.48;99402.41;125887;1092;102990;-73
2021/06/05 07:56:51;;;;;;;19.50;8.43;;;;;;;16.85;58.08;99413.16;126017;1093;102914;-73
2021/06/05 07:59:24;;;;;;;16.27;6.87;;;;;;;16.88;58.44;99412.88;125993;1093;102923;-72
2021/06/05 08:01:54;;;;;;;13.60;6.55;;;;;;;16.95;58.45;99412.14;125995;1092;102907;-74
2021/06/05 08:04:24;;;;;;;14.43;6.70;;;;;;;17.04;58.24;99418.54;126029;1092;102909;-73
2021/06/05 08:06:55;;;;;;;14.07;6.67;;;;;;;17.10;58.48;99415.28;125972;1091;103097;-74
2021/06/05 08:09:24;;;;;;;14.10;6.30;;;;;;;17.13;58.57;99414.13;126006;1093;103015;-72
2021/06/05 08:11:53;;;;;;;15.80;7.57;;;;;;;17.17;58.53;99411.98;125980;1093;102903;-73
2021/06/05 08:14:22;;;;;;;16.73;7.00;;;;;;;17.19;58.59;99415.38;126140;1092;103087;-71
2021/06/05 08:16:51;;;;;;;13.83;6.30;;;;;;;17.26;58.69;99419.17;125906;1092;102990;-72
2021/06/05 08:19:19;;;;;;;17.43;6.93;;;;;;;17.29;58.26;99416.19;126143;1092;102998;-72
2021/06/05 08:21:48;;;;;;;12.40;5.03;;;;;;;17.33;58.58;99408.67;126013;1091;102933;-73
2021/06/05 08:24:18;;;;;;;14.90;6.27;;;;;;;17.31;58.44;99410.69;126001;1092;102926;-73
2021/06/05 08:26:50;;;;;;;12.20;5.45;;;;;;;17.34;58.64;99410.36;126021;1091;103051;-73
2021/06/05 08:29:19;;;;;;;12.63;5.63;;;;;;;17.35;58.63;99409.38;125999;1091;102901;-73
2021/06/05 08:31:49;;;;;;;9.73;5.07;;;;;;;17.38;58.31;99409.95;125701;1093;103053;-74
2021/06/05 08:34:20;;;;;;;14.90;5.73;;;;;;;17.38;58.59;99415.32;126061;1093;103084;-72
2021/06/05 08:36:49;;;;;;;12.73;5.77;;;;;;;17.37;58.56;99412.77;126011;1093;102933;-73
2021/06/05 08:39:18;;;;;;;11.97;5.83;;;;;;;17.38;58.52;99406.39;126027;1091;103052;-72
2021/06/05 08:41:52;;;;;;;11.83;5.57;;;;;;;17.39;58.37;99402.70;126113;1091;102702;-70
2021/06/05 08:44:41;;;;;;;14.57;6.03;;;;;;;17.39;58.28;99402.70;126027;1093;103005;-72
2021/06/05 08:47:16;;;;;;;12.47;5.53;;;;;;;17.38;58.53;99401.02;126127;1092;102902;-72
2021/06/05 08:49:47;;;;;;;13.97;5.50;;;;;;;17.39;58.49;99406.26;126089;1093;102927;-73
2021/06/05 08:52:31;;;;;;;11.87;5.20;;;;;;;17.40;58.45;99399.89;126064;1092;103431;-73
2021/06/05 08:55:18;;;;;;;13.03;5.50;;;;;;;17.48;58.61;99403.69;126128;1092;102981;-70
2021/06/05 08:57:56;;;;;;;11.23;5.40;;;;;;;17.53;58.34;99396.86;125979;1093;102932;-71
2021/06/05 09:00:44;;;;;;;13.53;5.33;;;;;;;17.62;58.69;99396.97;126020;1091;102929;-72
2021/06/05 09:03:19;;;;;;;12.40;5.30;;;;;;;17.71;58.41;99398.77;126047;1092;102987;-72
2021/06/05 09:05:57;;;;;;;12.03;5.97;;;;;;;17.76;58.43;99387.54;126058;1093;103052;-72
2021/06/05 09:08:25;;;;;;;13.10;6.20;;;;;;;17.85;58.37;99384.78;126095;1092;103049;-72
2021/06/05 09:11:11;;;;;;;12.80;5.70;;;;;;;18.02;58.42;99387.70;125980;1092;103009;-74
2021/06/05 09:13:43;;;;;;;12.97;5.93;;;;;;;18.38;58.75;99386.84;125996;1091;102982;-75
2021/06/05 09:16:24;;;;;;;12.37;5.63;;;;;;;19.44;58.00;99382.38;126008;1092;103566;-71
2021/06/05 09:18:55;;;;;;;15.80;6.67;;;;;;;20.43;58.11;99366.47;126030;1091;103002;-74
2021/06/05 09:21:38;;;;;;;12.70;6.53;;;;;;;21.31;58.16;99374.83;126019;1093;102985;-72
2021/06/05 09:24:29;;;;;;;15.70;7.15;;;;;;;21.72;58.13;99363.01;125992;1091;103090;-72
2021/06/05 09:27:13;;;;;;;13.47;6.13;;;;;;;22.44;57.95;99359.17;125942;1093;102929;-71
2021/06/05 09:30:02;;;;;;;14.57;6.17;;;;;;;23.18;58.09;99356.80;126017;1093;103112;-72
2021/06/05 09:32:32;;;;;;;12.93;5.97;;;;;;;23.74;58.15;99355.45;125921;1093;103019;-73
2021/06/05 09:35:10;;;;;;;10.90;5.47;;;;;;;24.16;57.50;99358.46;126004;1092;102917;-72
2021/06/05 09:37:45;;;;;;;17.10;6.60;;;;;;;24.49;57.82;99347.88;125963;1092;102912;-71
2021/06/05 09:40:20;;;;;;;10.47;4.80;;;;;;;24.92;57.52;99355.17;126017;1092;102936;-73
2021/06/05 09:42:49;;;;;;;11.90;5.43;;;;;;;24.99;57.06;99357.92;125976;1092;102926;-73
2021/06/05 09:45:24;;;;;;;10.15;5.10;;;;;;;25.19;57.17;99351.78;126012;1092;102939;-73
2021/06/05 09:48:15;;;;;;;12.50;5.40;;;;;;;25.14;57.46;99354.26;125980;1092;103377;-71
2021/06/05 09:50:46;;;;;;;10.63;4.60;;;;;;;25.03;57.20;99356.48;125962;1091;103052;-71
2021/06/05 09:53:19;;;;;;;9.47;5.13;;;;;;;24.84;57.01;99359.93;125990;1091;102907;-72
2021/06/05 09:55:48;;;;;;;10.67;4.90;;;;;;;24.61;56.67;99345.50;125965;1092;102907;-72
2021/06/05 09:58:32;;;;;;;7.67;4.60;;;;;;;24.51;56.79;99342.27;126034;1093;102938;-71
2021/06/05 10:01:25;;;;;;;6.63;4.23;;;;;;;24.41;56.36;99339.89;126019;1091;103028;-72
2021/06/05 10:04:08;;;;;;;8.80;4.43;;;;;;;24.41;56.72;99331.73;125991;1091;102927;-72
2021/06/05 10:06:42;;;;;;;12.33;4.70;;;;;;;24.50;56.41;99335.97;125724;1093;102900;-73
2021/06/05 10:09:25;;;;;;;9.33;4.83;;;;;;;24.43;55.73;99334.23;126041;1092;103007;-73
2021/06/05 10:12:09;;;;;;;7.23;4.35;;;;;;;24.18;55.41;99327.33;126006;1091;102932;-72
2021/06/05 10:14:46;;;;;;;9.70;4.77;;;;;;;23.99;55.70;99326.09;126032;1091;102906;-73
2021/06/05 10:17:30;;;;;;;10.90;5.27;;;;;;;23.79;55.37;99329.42;126073;1093;103080;-73
2021/06/05 10:20:27;;;;;;;10.97;4.37;;;;;;;23.60;54.89;99316.44;126137;1092;103013;-74
2021/06/05 10:22:58;;;;;;;10.57;4.70;;;;;;;23.45;55.08;99325.44;126156;1093;103055;-73
2021/06/05 10:25:38;;;;;;;11.87;4.93;;;;;;;23.46;55.00;99316.27;126025;1092;103461;-73
2021/06/05 10:28:14;;;;;;;9.07;4.33;;;;;;;23.43;54.48;99321.24;126001;1092;103060;-73
2021/06/05 10:30:45;;;;;;;12.87;5.00;;;;;;;23.18;54.59;99313.39;125978;1093;103132;-73
2021/06/05 10:33:29;;;;;;;11.57;5.40;;;;;;;22.97;54.18;99306.83;125746;1093;102906;-75
2021/06/05 10:35:58;;;;;;;12.10;5.10;;;;;;;22.91;54.38;99296.72;125977;1093;103002;-72
2021/06/05 10:38:54;;;;;;;12.47;5.20;;;;;;;23.00;54.40;99302.91;125999;1093;102895;-73
2021/06/05 10:41:37;;;;;;;12.20;5.77;;;;;;;22.93;54.06;99293.84;125992;1092;103129;-73
2021/06/05 10:44:07;;;;;;;11.67;5.07;;;;;;;22.86;53.92;99288.30;125821;1092;103046;-71
2021/06/05 10:47:07;;;;;;;10.13;5.17;;;;;;;22.82;54.22;99279.70;126031;1093;102984;-72
2021/06/05 10:49:50;;;;;;;10.30;5.43;;;;;;;22.86;53.99;99281.02;125928;1093;103001;-73
2021/06/05 10:52:32;;;;;;;12.83;5.13;;;;;;;22.85;53.77;99282.05;125997;1091;103081;-73
2021/06/05 10:55:24;;;;;;;14.03;7.60;;;;;;;22.65;53.70;99279.04;125975;1092;102975;-72
2021/06/05 10:58:15;;;;;;;11.80;5.63;;;;;;;22.68;53.39;99273.25;125958;1093;103092;-72
2021/06/05 11:00:57;;;;;;;11.07;5.50;;;;;;;22.81;53.77;99277.19;126010;1091;103052;-74
2021/06/05 11:03:25;;;;;;;9.17;5.07;;;;;;;22.90;53.50;99273.34;125973;1093;102985;-74
2021/06/05 11:06:14;;;;;;;10.73;5.13;;;;;;;22.90;53.59;99267.91;126016;1093;103002;-74
2021/06/05 11:08:52;;;;;;;12.67;5.40;;;;;;;22.96;53.39;99271.77;125984;1091;102953;-73
2021/06/05 11:11:45;;;;;;;9.70;4.80;;;;;;;23.03;53.10;99269.96;125952;1092;102932;-73
2021/06/05 11:14:19;;;;;;;9.50;4.93;;;;;;;23.12;53.48;99259.88;126019;1091;102991;-73
2021/06/05 11:16:57;;;;;;;11.27;5.43;;;;;;;23.01;52.96;99250.35;125984;1093;102979;-74
2021/06/05 11:19:39;;;;;;;11.90;5.43;;;;;;;22.95;53.21;99246.50;126011;1093;102918;-74
2021/06/05 11:22:16;;;;;;;9.57;4.90;;;;;;;23.02;52.88;99243.89;125998;1091;103404;-75
2021/06/05 11:25:06;;;;;;;8.83;4.60;;;;;;;23.04;52.72;99241.81;125989;1091;103002;-75
2021/06/05 11:27:37;;;;;;;10.97;5.13;;;;;;;23.05;52.74;99244.34;125971;1092;102986;-72
2021/06/05 11:30:21;;;;;;;9.25;4.65;;;;;;;23.13;52.44;99246.11;126010;1091;102903;-73
2021/06/05 11:33:00;;;;;;;12.87;4.97;;;;;;;23.30;52.84;99238.62;126100;1092;102924;-73
2021/06/05 11:35:41;;;;;;;10.10;5.10;;;;;;;23.46;52.55;99228.58;126134;1092;102901;-71
2021/06/05 11:38:18;;;;;;;10.57;5.07;;;;;;;23.54;52.46;99225.75;126086;1092;103042;-72